Time;durP1;ratioP1;P1;durP2;ratioP2;P2;SDS_P1;SDS_P2;PMS_P1;PMS_P2;Temp;Humidity;BMP_temperature;BMP_pressure;BME280_temperature;BME280_humidity;BME280_pressure;Samples;Min_cycle;Max_cycle;Signal;HPM_P1;HPM_P2
2023/11/03 00:02:08;;;;;;;15.68;10.50;;;;;;;;;;5143565;27;20039;-71
2023/11/03 00:04:53;;;;;;;20.95;9.95;;;;;;;;;;5142276;27;20023;-70
2023/11/03 00:07:40;;;;;;;15.85;10.13;;;;;;;;;;5136268;27;20017;-70
2023/11/03 00:10:27;;;;;;;14.88;10.20;;;;;;;;;;5135513;27;20019;-71
2023/11/03 00:13:12;;;;;;;15.77;9.60;;;;;;;;;;5136116;27;20412;-71
2023/11/03 00:15:58;;;;;;;15.20;10.07;;;;;;;;;;5136878;27;20138;-71
2023/11/03 00:18:44;;;;;;;13.60;9.63;;;;;;;;;;5136330;27;20019;-71
2023/11/03 00:21:36;;;;;;;15.80;10.07;;;;;;;;;;5121633;27;20027;-71
2023/11/03 00:24:25;;;;;;;15.73;10.40;;;;;;;;;;5120942;27;20049;-71
2023/11/03 00:27:11;;;;;;;15.25;10.23;;;;;;;;;;5120412;27;20020;-71
2023/11/03 00:29:57;;;;;;;19.88;10.85;;;;;;;;;;5121052;27;20030;-71
2023/11/03 00:32:43;;;;;;;19.05;12.30;;;;;;;;;;5120336;27;20019;-71
2023/11/03 00:35:28;;;;;;;16.40;11.25;;;;;;;;;;5121069;28;20015;-71
2023/11/03 00:38:15;;;;;;;20.13;12.63;;;;;;;;;;5135367;27;20026;-72
2023/11/03 00:41:01;;;;;;;19.63;11.50;;;;;;;;;;5135347;27;20359;-70
2023/11/03 00:43:47;;;;;;;18.63;11.77;;;;;;;;;;5135181;27;20354;-71
2023/11/03 00:46:33;;;;;;;19.95;11.98;;;;;;;;;;5135536;27;20557;-71
2023/11/03 00:49:19;;;;;;;19.98;12.30;;;;;;;;;;5135311;27;20464;-71
2023/11/03 00:52:08;;;;;;;18.88;11.70;;;;;;;;;;5135670;28;20401;-71
2023/11/03 00:54:54;;;;;;;17.17;11.82;;;;;;;;;;5134711;28;20116;-71
2023/11/03 00:57:40;;;;;;;17.58;10.77;;;;;;;;;;5135080;28;20451;-71
2023/11/03 01:00:25;;;;;;;16.67;11.30;;;;;;;;;;5120169;28;20052;-71
2023/11/03 01:03:11;;;;;;;15.85;10.60;;;;;;;;;;5135476;28;20347;-72
2023/11/03 01:05:57;;;;;;;16.33;10.00;;;;;;;;;;5137836;27;20105;-72
2023/11/03 01:08:43;;;;;;;14.82;10.15;;;;;;;;;;5139828;27;20157;-72
2023/11/03 01:11:30;;;;;;;15.65;10.10;;;;;;;;;;5139302;27;20110;-70
2023/11/03 01:14:18;;;;;;;14.13;9.85;;;;;;;;;;5140529;27;20102;-71
2023/11/03 01:17:05;;;;;;;16.35;9.60;;;;;;;;;;5139691;27;20110;-72
2023/11/03 01:19:50;;;;;;;11.95;8.82;;;;;;;;;;5124966;27;20027;-71
2023/11/03 01:22:36;;;;;;;16.80;8.95;;;;;;;;;;5140328;27;20385;-71
2023/11/03 01:25:22;;;;;;;14.48;9.70;;;;;;;;;;5139923;27;20023;-72
2023/11/03 01:28:07;;;;;;;15.68;9.23;;;;;;;;;;5138470;27;20027;-71
2023/11/03 01:30:53;;;;;;;14.05;9.43;;;;;;;;;;5124505;27;20424;-71
2023/11/03 01:33:41;;;;;;;14.77;9.07;;;;;;;;;;5124742;27;20011;-72
2023/11/03 01:36:27;;;;;;;16.13;9.20;;;;;;;;;;5138526;27;20019;-72
2023/11/03 01:39:14;;;;;;;13.32;8.68;;;;;;;;;;5138064;27;20034;-70
2023/11/03 01:41:59;;;;;;;13.93;8.85;;;;;;;;;;5139089;27;20023;-71
2023/11/03 01:44:45;;;;;;;17.02;9.30;;;;;;;;;;5124566;27;20022;-72
2023/11/03 01:47:31;;;;;;;15.48;8.30;;;;;;;;;;5138651;27;20058;-70
2023/11/03 01:50:16;;;;;;;19.42;9.40;;;;;;;;;;5137894;27;20465;-70
2023/11/03 01:53:05;;;;;;;13.93;9.27;;;;;;;;;;5123785;27;20030;-71
2023/11/03 01:55:51;;;;;;;14.00;9.38;;;;;;;;;;5137591;27;20061;-72
2023/11/03 01:58:36;;;;;;;14.98;9.10;;;;;;;;;;5138594;27;20015;-71
2023/11/03 02:01:22;;;;;;;13.52;8.93;;;;;;;;;;5137434;27;20019;-71
2023/11/03 02:04:08;;;;;;;16.30;8.95;;;;;;;;;;5138199;27;20030;-72
2023/11/03 02:06:54;;;;;;;14.45;8.68;;;;;;;;;;5123025;27;20239;-71
2023/11/03 02:09:39;;;;;;;16.42;9.32;;;;;;;;;;5123834;27;20023;-71
2023/11/03 02:12:26;;;;;;;11.90;8.35;;;;;;;;;;5138680;27;20027;-71
2023/11/03 02:15:12;;;;;;;15.10;9.30;;;;;;;;;;5123295;27;20053;-71
2023/11/03 02:17:57;;;;;;;14.05;8.88;;;;;;;;;;5137590;27;20072;-70
2023/11/03 02:20:43;;;;;;;14.07;8.55;;;;;;;;;;5138278;27;20051;-71
2023/11/03 02:23:32;;;;;;;14.45;8.55;;;;;;;;;;5137368;27;20109;-71
2023/11/03 02:26:18;;;;;;;11.57;8.80;;;;;;;;;;5123097;27;20042;-71
2023/11/03 02:29:04;;;;;;;14.38;8.82;;;;;;;;;;5123371;27;20101;-71
2023/11/03 02:31:49;;;;;;;16.40;10.07;;;;;;;;;;5138929;27;20015;-71
2023/11/03 02:34:35;;;;;;;13.98;9.93;;;;;;;;;;5122450;27;20526;-70
2023/11/03 02:37:20;;;;;;;14.85;9.23;;;;;;;;;;5136769;27;20031;-72
2023/11/03 02:40:07;;;;;;;16.13;9.80;;;;;;;;;;5115755;27;20080;-72
2023/11/03 02:42:53;;;;;;;13.40;9.20;;;;;;;;;;5136952;27;20431;-72
2023/11/03 02:45:38;;;;;;;17.33;9.25;;;;;;;;;;5123049;27;20202;-71
2023/11/03 02:48:24;;;;;;;15.48;9.20;;;;;;;;;;5136958;27;20434;-72
2023/11/03 02:51:10;;;;;;;14.02;9.38;;;;;;;;;;5137379;27;20341;-71
2023/11/03 02:53:57;;;;;;;15.23;8.85;;;;;;;;;;5136995;27;20043;-71
2023/11/03 02:56:42;;;;;;;14.50;9.00;;;;;;;;;;5137658;27;20447;-72
2023/11/03 02:59:28;;;;;;;15.60;8.50;;;;;;;;;;5122627;27;20023;-70
2023/11/03 03:02:13;;;;;;;14.45;8.88;;;;;;;;;;5122580;27;20012;-71
2023/11/03 03:04:59;;;;;;;14.13;8.48;;;;;;;;;;5136651;27;20456;-70
2023/11/03 03:07:46;;;;;;;14.10;8.65;;;;;;;;;;5136697;27;20022;-71
2023/11/03 03:10:32;;;;;;;14.05;8.23;;;;;;;;;;5122591;27;20019;-71
2023/11/03 03:13:17;;;;;;;12.82;8.68;;;;;;;;;;5137237;27;20015;-71
2023/11/03 03:16:04;;;;;;;13.40;8.52;;;;;;;;;;5137905;27;20019;-71
2023/11/03 03:18:50;;;;;;;12.23;8.25;;;;;;;;;;5136106;27;20027;-71
2023/11/03 03:21:35;;;;;;;16.27;8.90;;;;;;;;;;5122194;27;20041;-71
2023/11/03 03:24:21;;;;;;;11.88;8.05;;;;;;;;;;5137978;27;20036;-72
2023/11/03 03:27:07;;;;;;;13.48;7.88;;;;;;;;;;5137576;27;20019;-71
2023/11/03 03:29:53;;;;;;;10.40;7.22;;;;;;;;;;5136193;27;20025;-71
2023/11/03 03:32:39;;;;;;;16.75;7.88;;;;;;;;;;5136888;27;20026;-71
2023/11/03 03:35:24;;;;;;;9.93;7.30;;;;;;;;;;5121138;27;20026;-72
2023/11/03 03:38:10;;;;;;;12.18;7.05;;;;;;;;;;5135892;27;20084;-71
2023/11/03 03:40:56;;;;;;;11.43;7.03;;;;;;;;;;5122166;27;20026;-71
2023/11/03 03:43:41;;;;;;;11.88;7.30;;;;;;;;;;5136586;27;20102;-71
2023/11/03 03:46:27;;;;;;;12.07;7.03;;;;;;;;;;5136888;27;20023;-71
2023/11/03 03:49:13;;;;;;;10.45;7.60;;;;;;;;;;5136856;27;20057;-72
2023/11/03 03:51:58;;;;;;;13.48;7.82;;;;;;;;;;5136379;27;20015;-71
2023/11/03 03:54:44;;;;;;;11.82;7.15;;;;;;;;;;5136426;27;20047;-72
2023/11/03 03:57:29;;;;;;;10.55;6.95;;;;;;;;;;5135383;27;20015;-71
2023/11/03 04:00:16;;;;;;;12.18;7.22;;;;;;;;;;5136680;27;20088;-70
2023/11/03 04:03:01;;;;;;;12.45;7.65;;;;;;;;;;5135874;27;20031;-70
2023/11/03 04:05:47;;;;;;;11.18;7.57;;;;;;;;;;5121105;27;20027;-71
2023/11/03 04:08:33;;;;;;;13.98;7.85;;;;;;;;;;5136677;27;20037;-71
2023/11/03 04:11:18;;;;;;;12.05;7.30;;;;;;;;;;5120745;27;20011;-71
2023/11/03 04:14:04;;;;;;;12.90;8.32;;;;;;;;;;5113633;27;20016;-72
2023/11/03 04:16:51;;;;;;;12.18;7.80;;;;;;;;;;5110733;27;20023;-71
2023/11/03 04:19:37;;;;;;;10.70;7.78;;;;;;;;;;5135516;27;20076;-70
2023/11/03 04:22:22;;;;;;;17.67;8.43;;;;;;;;;;5136327;27;20148;-71
2023/11/03 04:25:08;;;;;;;13.13;7.82;;;;;;;;;;5135993;27;20447;-71
2023/11/03 04:27:53;;;;;;;15.27;8.25;;;;;;;;;;5120947;27;20023;-71
2023/11/03 04:30:39;;;;;;;12.55;8.07;;;;;;;;;;5136301;27;20072;-72
2023/11/03 04:33:25;;;;;;;12.68;8.40;;;;;;;;;;5136376;27;20066;-71
2023/11/03 04:36:11;;;;;;;11.18;8.38;;;;;;;;;;5135056;27;20451;-72
2023/11/03 04:38:57;;;;;;;12.30;7.93;;;;;;;;;;5135955;27;20027;-72
2023/11/03 04:41:43;;;;;;;12.15;8.10;;;;;;;;;;5120421;27;20081;-71
2023/11/03 04:44:28;;;;;;;15.10;8.68;;;;;;;;;;5135578;27;20019;-70
2023/11/03 04:47:14;;;;;;;13.27;8.70;;;;;;;;;;5119778;27;20019;-72
2023/11/03 04:49:59;;;;;;;15.65;9.35;;;;;;;;;;5135883;27;20015;-72
2023/11/03 04:52:45;;;;;;;13.43;8.80;;;;;;;;;;5135886;28;20027;-71
2023/11/03 04:55:31;;;;;;;18.35;8.57;;;;;;;;;;5119345;28;20071;-72
2023/11/03 04:58:17;;;;;;;13.18;8.70;;;;;;;;;;5136124;28;20105;-72
2023/11/03 05:01:02;;;;;;;15.27;8.18;;;;;;;;;;5134937;28;20026;-72
2023/11/03 05:03:48;;;;;;;16.25;8.25;;;;;;;;;;5119858;28;20060;-72
2023/11/03 05:06:34;;;;;;;11.48;7.72;;;;;;;;;;5135405;28;20023;-71
2023/11/03 05:09:19;;;;;;;14.45;8.23;;;;;;;;;;5134320;28;20508;-71
2023/11/03 05:12:05;;;;;;;14.45;8.80;;;;;;;;;;5135898;28;20023;-71
2023/11/03 05:14:51;;;;;;;16.17;9.55;;;;;;;;;;5134398;28;20487;-72
2023/11/03 05:17:37;;;;;;;19.45;9.68;;;;;;;;;;5134403;28;20027;-71
2023/11/03 05:20:22;;;;;;;15.80;9.50;;;;;;;;;;5134884;28;20019;-70
2023/11/03 05:23:08;;;;;;;18.73;10.20;;;;;;;;;;5135932;28;20098;-72
2023/11/03 05:25:53;;;;;;;16.42;9.45;;;;;;;;;;5134906;28;20120;-72
2023/11/03 05:28:40;;;;;;;13.02;9.48;;;;;;;;;;5135140;28;20089;-71
2023/11/03 05:31:26;;;;;;;21.48;10.73;;;;;;;;;;5135284;28;20062;-71
2023/11/03 05:34:12;;;;;;;17.60;10.68;;;;;;;;;;5135025;28;20024;-72
2023/11/03 05:36:58;;;;;;;21.83;10.45;;;;;;;;;;5119646;28;20031;-72
2023/11/03 05:39:43;;;;;;;14.88;10.02;;;;;;;;;;5135749;28;20051;-71
2023/11/03 05:42:29;;;;;;;19.98;9.98;;;;;;;;;;5138543;28;20410;-71
2023/11/03 05:45:15;;;;;;;23.88;10.25;;;;;;;;;;5122431;28;20110;-72
2023/11/03 05:48:01;;;;;;;19.58;9.90;;;;;;;;;;5135620;28;20043;-72
2023/11/03 05:50:46;;;;;;;22.20;11.15;;;;;;;;;;5134212;27;20104;-72
2023/11/03 05:53:32;;;;;;;18.48;10.70;;;;;;;;;;5138906;27;20098;-72
2023/11/03 05:56:17;;;;;;;20.75;11.95;;;;;;;;;;5138671;27;20385;-72
2023/11/03 05:59:03;;;;;;;21.23;11.43;;;;;;;;;;5137882;27;20500;-72
2023/11/03 06:01:49;;;;;;;18.75;10.68;;;;;;;;;;5138323;27;20023;-71
2023/11/03 06:04:35;;;;;;;16.08;10.25;;;;;;;;;;5138451;27;20050;-71
2023/11/03 06:07:20;;;;;;;17.77;11.43;;;;;;;;;;5122865;27;20030;-71
2023/11/03 06:10:06;;;;;;;17.23;11.80;;;;;;;;;;5138058;27;20332;-71
2023/11/03 06:12:52;;;;;;;20.70;11.10;;;;;;;;;;5123290;27;20019;-71
2023/11/03 06:15:37;;;;;;;26.50;12.35;;;;;;;;;;5138211;27;20337;-71
2023/11/03 06:18:23;;;;;;;29.75;13.50;;;;;;;;;;5137984;27;20015;-71
2023/11/03 06:21:08;;;;;;;23.02;12.75;;;;;;;;;;5138148;27;20084;-71
2023/11/03 06:23:55;;;;;;;23.45;12.55;;;;;;;;;;5137334;27;20027;-71
2023/11/03 06:26:41;;;;;;;20.17;12.02;;;;;;;;;;5137118;27;20030;-71
2023/11/03 06:29:26;;;;;;;22.50;11.88;;;;;;;;;;5137020;27;20095;-71
2023/11/03 06:32:12;;;;;;;21.98;12.20;;;;;;;;;;5137501;27;20317;-71
2023/11/03 06:34:57;;;;;;;20.52;11.68;;;;;;;;;;5138171;27;20019;-71
2023/11/03 06:37:43;;;;;;;20.50;11.95;;;;;;;;;;5137802;27;20015;-71
2023/11/03 06:40:29;;;;;;;21.27;12.35;;;;;;;;;;5137465;27;20023;-71
2023/11/03 06:43:15;;;;;;;27.73;12.50;;;;;;;;;;5137907;27;20027;-71
2023/11/03 06:46:01;;;;;;;25.17;12.57;;;;;;;;;;5137562;27;20028;-71
2023/11/03 06:48:47;;;;;;;21.15;12.20;;;;;;;;;;5137801;27;20061;-71
2023/11/03 06:51:33;;;;;;;21.38;12.23;;;;;;;;;;5137197;27;20038;-72
2023/11/03 06:54:19;;;;;;;22.00;12.45;;;;;;;;;;5137376;27;20039;-72
2023/11/03 06:57:06;;;;;;;19.80;12.35;;;;;;;;;;5122323;27;20053;-71
2023/11/03 06:59:51;;;;;;;24.17;11.57;;;;;;;;;;5137480;27;20023;-72
2023/11/03 07:02:38;;;;;;;19.88;12.00;;;;;;;;;;5136932;27;20026;-71
2023/11/03 07:05:24;;;;;;;23.77;11.25;;;;;;;;;;5137631;27;20034;-73
2023/11/03 07:08:09;;;;;;;16.45;10.95;;;;;;;;;;5137565;27;20024;-72
2023/11/03 07:10:55;;;;;;;44.47;12.90;;;;;;;;;;5137685;27;20015;-72
2023/11/03 07:13:41;;;;;;;19.67;11.75;;;;;;;;;;5135998;27;20038;-72
2023/11/03 07:16:26;;;;;;;18.45;10.55;;;;;;;;;;5122660;27;20024;-71
2023/11/03 07:19:13;;;;;;;18.52;10.13;;;;;;;;;;5121819;27;20019;-72
2023/11/03 07:21:58;;;;;;;20.40;10.38;;;;;;;;;;5136956;27;20058;-72
2023/11/03 07:24:44;;;;;;;20.67;10.27;;;;;;;;;;5136029;27;20146;-72
2023/11/03 07:27:30;;;;;;;16.08;10.43;;;;;;;;;;5121704;27;20049;-72
2023/11/03 07:30:15;;;;;;;18.45;10.40;;;;;;;;;;5136686;27;20023;-72
2023/11/03 07:33:01;;;;;;;17.50;9.98;;;;;;;;;;5136874;27;20023;-72
2023/11/03 07:35:46;;;;;;;16.35;9.57;;;;;;;;;;5136234;27;20030;-70
2023/11/03 07:38:32;;;;;;;17.10;10.25;;;;;;;;;;5136409;27;20050;-71
2023/11/03 07:41:18;;;;;;;13.65;9.38;;;;;;;;;;5136445;27;20347;-71
2023/11/03 07:44:03;;;;;;;13.93;9.10;;;;;;;;;;5137055;27;20026;-72
2023/11/03 07:46:49;;;;;;;15.60;9.50;;;;;;;;;;5135317;27;20466;-72
2023/11/03 07:49:36;;;;;;;15.43;8.93;;;;;;;;;;5120710;27;20023;-71
2023/11/03 07:52:22;;;;;;;14.70;9.02;;;;;;;;;;5135830;27;20030;-72
2023/11/03 07:55:08;;;;;;;22.55;10.57;;;;;;;;;;5136343;27;20043;-72
2023/11/03 07:57:53;;;;;;;13.55;9.25;;;;;;;;;;5120926;27;20023;-72
2023/11/03 08:00:39;;;;;;;14.38;8.88;;;;;;;;;;5121798;27;20415;-71
2023/11/03 08:03:28;;;;;;;16.17;9.40;;;;;;;;;;5136267;27;20126;-72
2023/11/03 08:06:14;;;;;;;13.65;8.38;;;;;;;;;;5135343;27;20019;-71
2023/11/03 08:08:59;;;;;;;12.40;7.97;;;;;;;;;;5135188;27;20393;-72
2023/11/03 08:11:46;;;;;;;16.55;9.43;;;;;;;;;;5121614;27;20019;-71
2023/11/03 08:14:32;;;;;;;13.85;9.13;;;;;;;;;;5134759;27;20023;-71
2023/11/03 08:17:20;;;;;;;14.55;8.23;;;;;;;;;;5135946;27;20047;-71
2023/11/03 08:20:07;;;;;;;16.20;9.10;;;;;;;;;;5135197;27;20015;-72
2023/11/03 08:22:53;;;;;;;15.95;9.48;;;;;;;;;;5120613;27;20023;-71
2023/11/03 08:25:39;;;;;;;15.98;9.70;;;;;;;;;;5120987;27;20092;-73
2023/11/03 08:28:25;;;;;;;14.38;8.55;;;;;;;;;;5136067;27;20030;-72
2023/11/03 08:31:11;;;;;;;13.85;9.32;;;;;;;;;;5135821;27;20015;-72
2023/11/03 08:33:56;;;;;;;18.58;8.60;;;;;;;;;;5135398;27;20026;-73
2023/11/03 08:36:42;;;;;;;17.42;8.88;;;;;;;;;;5120409;27;20054;-72
2023/11/03 08:39:27;;;;;;;13.07;9.32;;;;;;;;;;5136174;27;20437;-71
2023/11/03 08:42:14;;;;;;;12.98;9.10;;;;;;;;;;5135340;27;20057;-72
2023/11/03 08:45:00;;;;;;;14.13;9.23;;;;;;;;;;5134606;27;20374;-72
2023/11/03 08:47:46;;;;;;;14.77;8.95;;;;;;;;;;5121122;27;20111;-72
2023/11/03 08:50:31;;;;;;;15.82;10.10;;;;;;;;;;5134957;27;20347;-72
2023/11/03 08:53:18;;;;;;;18.88;9.38;;;;;;;;;;5135346;27;20434;-73
2023/11/03 08:56:04;;;;;;;14.00;8.50;;;;;;;;;;5135464;28;20110;-73
2023/11/03 08:58:50;;;;;;;14.63;8.77;;;;;;;;;;5134480;28;20453;-71
2023/11/03 09:01:35;;;;;;;18.55;9.35;;;;;;;;;;5135329;28;20064;-72
2023/11/03 09:04:24;;;;;;;13.07;8.85;;;;;;;;;;5135326;28;20019;-72
2023/11/03 09:07:12;;;;;;;17.30;9.02;;;;;;;;;;5119735;28;20019;-72
2023/11/03 09:09:58;;;;;;;15.43;8.80;;;;;;;;;;5135828;28;20019;-71
2023/11/03 09:12:43;;;;;;;13.10;8.88;;;;;;;;;;5134451;28;20031;-72
2023/11/03 09:15:29;;;;;;;12.25;8.32;;;;;;;;;;5135633;28;20027;-73
2023/11/03 09:18:15;;;;;;;15.15;8.68;;;;;;;;;;5134231;28;20103;-70
2023/11/03 09:21:03;;;;;;;21.38;9.60;;;;;;;;;;5134871;28;20027;-71
2023/11/03 09:23:48;;;;;;;13.38;8.57;;;;;;;;;;5134978;28;20023;-72
2023/11/03 09:26:34;;;;;;;12.30;8.90;;;;;;;;;;5135827;27;20303;-73
2023/11/03 09:29:21;;;;;;;12.23;8.77;;;;;;;;;;5138471;27;20034;-72
2023/11/03 09:32:07;;;;;;;12.10;8.40;;;;;;;;;;5124851;27;20023;-72
2023/11/03 09:34:53;;;;;;;12.93;8.63;;;;;;;;;;5124920;27;20015;-72
2023/11/03 09:37:39;;;;;;;19.02;8.52;;;;;;;;;;5123998;27;20058;-72
2023/11/03 09:40:25;;;;;;;14.52;8.43;;;;;;;;;;5138729;27;20057;-72
2023/11/03 09:43:10;;;;;;;9.35;7.65;;;;;;;;;;5139706;27;20015;-73
2023/11/03 09:45:57;;;;;;;13.07;8.10;;;;;;;;;;5139157;27;20026;-74
2023/11/03 09:48:43;;;;;;;10.77;8.18;;;;;;;;;;5138962;27;20110;-75
2023/11/03 09:51:29;;;;;;;12.48;8.50;;;;;;;;;;5123553;27;20023;-72
2023/11/03 09:54:15;;;;;;;14.05;8.27;;;;;;;;;;5109648;27;20119;-72
2023/11/03 09:57:08;;;;;;;10.77;7.38;;;;;;;;;;5137838;27;20091;-72
2023/11/03 09:59:54;;;;;;;9.90;7.63;;;;;;;;;;5138205;27;20024;-71
2023/11/03 10:02:40;;;;;;;12.73;8.45;;;;;;;;;;5138483;27;20050;-71
2023/11/03 10:05:29;;;;;;;15.23;7.95;;;;;;;;;;5137782;27;20116;-71
2023/11/03 10:08:17;;;;;;;10.85;7.10;;;;;;;;;;5124052;27;20079;-72
2023/11/03 10:11:05;;;;;;;9.82;6.82;;;;;;;;;;5138559;27;20015;-71
2023/11/03 10:13:50;;;;;;;9.43;7.28;;;;;;;;;;5139533;27;20026;-72
2023/11/03 10:16:36;;;;;;;17.45;7.63;;;;;;;;;;5139854;27;20065;-71
2023/11/03 10:19:21;;;;;;;46.10;8.55;;;;;;;;;;5144155;27;20067;-70
2023/11/03 10:22:10;;;;;;;18.25;7.55;;;;;;;;;;5134191;27;20023;-71
2023/11/03 10:24:56;;;;;;;14.93;7.60;;;;;;;;;;5143988;27;20020;-71
2023/11/03 10:27:42;;;;;;;17.52;8.20;;;;;;;;;;5138198;27;20416;-72
2023/11/03 10:30:29;;;;;;;12.65;7.07;;;;;;;;;;5122423;27;20023;-72
2023/11/03 10:33:15;;;;;;;10.57;7.47;;;;;;;;;;5138902;27;20325;-71
2023/11/03 10:36:02;;;;;;;9.40;7.10;;;;;;;;;;5137073;27;20453;-72
2023/11/03 10:38:47;;;;;;;9.80;6.72;;;;;;;;;;5122397;27;20372;-71
2023/11/03 10:41:33;;;;;;;11.98;7.03;;;;;;;;;;5138150;27;20027;-71
2023/11/03 10:44:20;;;;;;;13.05;7.25;;;;;;;;;;5138387;27;20023;-72
2023/11/03 10:47:06;;;;;;;9.07;7.03;;;;;;;;;;5138384;27;20111;-72
2023/11/03 10:49:55;;;;;;;13.65;7.05;;;;;;;;;;5128399;27;20412;-71
2023/11/03 10:52:55;;;;;;;9.48;6.78;;;;;;;;;;5136824;27;20019;-70
2023/11/03 10:55:46;;;;;;;8.25;6.63;;;;;;;;;;5136070;27;20043;-72
2023/11/03 10:58:32;;;;;;;18.17;8.73;;;;;;;;;;5136657;27;20060;-72
2023/11/03 11:01:26;;;;;;;11.25;7.35;;;;;;;;;;5136132;27;20019;-72
2023/11/03 11:04:21;;;;;;;12.00;7.05;;;;;;;;;;5136512;27;20385;-72
2023/11/03 11:07:16;;;;;;;9.27;7.05;;;;;;;;;;5136120;27;20388;-71
2023/11/03 11:10:02;;;;;;;9.85;6.75;;;;;;;;;;5122245;27;20381;-72
2023/11/03 11:12:48;;;;;;;8.50;6.05;;;;;;;;;;5136681;27;20012;-71
2023/11/03 11:15:37;;;;;;;7.80;6.18;;;;;;;;;;5136253;27;20076;-72
2023/11/03 11:18:24;;;;;;;11.65;6.38;;;;;;;;;;5136723;27;20023;-72
2023/11/03 11:21:10;;;;;;;9.20;6.65;;;;;;;;;;5135582;27;20030;-72
2023/11/03 11:23:56;;;;;;;8.13;5.97;;;;;;;;;;5135774;27;20038;-72
2023/11/03 11:26:41;;;;;;;15.73;6.40;;;;;;;;;;5135823;27;20100;-71
2023/11/03 11:29:28;;;;;;;11.63;7.05;;;;;;;;;;5136134;27;20019;-71
2023/11/03 11:32:15;;;;;;;7.75;5.93;;;;;;;;;;5135880;27;20058;-72
2023/11/03 11:35:00;;;;;;;7.72;5.90;;;;;;;;;;5135520;27;20015;-72
2023/11/03 11:37:46;;;;;;;8.90;6.60;;;;;;;;;;5136125;27;20405;-71
2023/11/03 11:40:33;;;;;;;6.85;5.82;;;;;;;;;;5120539;27;20031;-72
2023/11/03 11:43:18;;;;;;;10.15;6.13;;;;;;;;;;5136053;27;20031;-72
2023/11/03 11:46:04;;;;;;;13.02;6.05;;;;;;;;;;5137424;27;20503;-72
2023/11/03 11:48:50;;;;;;;8.98;6.03;;;;;;;;;;5135062;27;20027;-71
2023/11/03 11:51:39;;;;;;;10.10;6.15;;;;;;;;;;5135887;27;20019;-72
2023/11/03 11:54:25;;;;;;;11.13;6.20;;;;;;;;;;5135344;27;20070;-72
2023/11/03 11:57:11;;;;;;;12.15;5.97;;;;;;;;;;5120545;27;20031;-72
2023/11/03 11:59:59;;;;;;;11.10;5.82;;;;;;;;;;5135704;27;20019;-72
2023/11/03 12:02:53;;;;;;;10.98;5.85;;;;;;;;;;5135947;27;20034;-72
2023/11/03 12:05:38;;;;;;;12.52;6.20;;;;;;;;;;5135528;27;20316;-72
2023/11/03 12:08:24;;;;;;;9.63;5.82;;;;;;;;;;5135475;27;20019;-72
2023/11/03 12:11:10;;;;;;;9.82;6.05;;;;;;;;;;5135940;27;20025;-72
2023/11/03 12:13:56;;;;;;;9.88;6.40;;;;;;;;;;5136254;27;20023;-70
2023/11/03 12:16:42;;;;;;;8.63;6.40;;;;;;;;;;5135908;27;20019;-71
2023/11/03 12:19:27;;;;;;;14.02;6.63;;;;;;;;;;5135551;27;20050;-72
2023/11/03 12:22:19;;;;;;;9.45;6.45;;;;;;;;;;5121276;27;20015;-72
2023/11/03 12:25:06;;;;;;;10.70;6.13;;;;;;;;;;5114301;27;20015;-72
2023/11/03 12:27:53;;;;;;;10.00;5.80;;;;;;;;;;5120838;27;20095;-73
2023/11/03 12:30:51;;;;;;;8.93;6.70;;;;;;;;;;5135503;27;20023;-73
2023/11/03 12:33:37;;;;;;;9.63;5.88;;;;;;;;;;5135204;27;20025;-72
2023/11/03 12:36:24;;;;;;;11.85;6.63;;;;;;;;;;5119636;27;20023;-73
2023/11/03 12:39:09;;;;;;;8.55;6.07;;;;;;;;;;5135661;27;20023;-73
2023/11/03 12:42:06;;;;;;;15.60;6.30;;;;;;;;;;5135476;27;20328;-72
2023/11/03 12:44:53;;;;;;;8.18;5.45;;;;;;;;;;5135866;27;20019;-72
2023/11/03 12:47:41;;;;;;;8.73;5.50;;;;;;;;;;5120608;27;20110;-72
2023/11/03 12:50:28;;;;;;;6.50;5.10;;;;;;;;;;5120564;27;20019;-71
2023/11/03 12:53:14;;;;;;;8.50;4.72;;;;;;;;;;5120637;28;20374;-71
2023/11/03 12:56:03;;;;;;;6.80;5.32;;;;;;;;;;5135826;28;20519;-71
2023/11/03 12:58:48;;;;;;;7.45;5.70;;;;;;;;;;5120570;28;20027;-71
2023/11/03 13:01:34;;;;;;;8.40;5.82;;;;;;;;;;5122232;27;20051;-72
2023/11/03 13:04:19;;;;;;;7.65;5.65;;;;;;;;;;5124934;27;20026;-73
2023/11/03 13:07:11;;;;;;;8.10;5.10;;;;;;;;;;5139105;27;20076;-71
2023/11/03 13:09:57;;;;;;;11.63;5.50;;;;;;;;;;5138481;27;20011;-71
2023/11/03 13:12:42;;;;;;;8.45;5.40;;;;;;;;;;5138940;27;20026;-71
2023/11/03 13:15:28;;;;;;;10.23;5.18;;;;;;;;;;5139096;27;20015;-73
2023/11/03 13:18:15;;;;;;;13.40;6.13;;;;;;;;;;5139859;27;20106;-72
2023/11/03 13:21:01;;;;;;;11.20;5.28;;;;;;;;;;5124398;27;20106;-73
2023/11/03 13:23:46;;;;;;;9.73;5.45;;;;;;;;;;5138414;27;20023;-71
2023/11/03 13:26:32;;;;;;;10.60;5.20;;;;;;;;;;5138897;27;20076;-72
2023/11/03 13:29:18;;;;;;;9.18;5.72;;;;;;;;;;5123320;27;20075;-72
2023/11/03 13:32:04;;;;;;;12.13;5.82;;;;;;;;;;5123762;27;20011;-72
2023/11/03 13:34:49;;;;;;;8.45;5.40;;;;;;;;;;5138702;27;20019;-72
2023/11/03 13:37:36;;;;;;;15.80;6.13;;;;;;;;;;5138039;27;20076;-72
2023/11/03 13:40:22;;;;;;;9.25;5.95;;;;;;;;;;5138965;27;20019;-71
2023/11/03 13:43:08;;;;;;;13.48;6.32;;;;;;;;;;5138758;27;20059;-71
2023/11/03 13:45:53;;;;;;;11.48;5.72;;;;;;;;;;5139200;27;20060;-72
2023/11/03 13:48:39;;;;;;;13.48;6.03;;;;;;;;;;5137681;27;20164;-72
2023/11/03 13:51:25;;;;;;;11.40;5.75;;;;;;;;;;5139222;27;20026;-72
2023/11/03 13:54:10;;;;;;;11.10;5.95;;;;;;;;;;5137949;27;20103;-72
2023/11/03 13:56:56;;;;;;;9.65;6.30;;;;;;;;;;5137732;27;20034;-72
2023/11/03 13:59:42;;;;;;;10.05;6.10;;;;;;;;;;5138592;27;20019;-71
2023/11/03 14:02:28;;;;;;;7.53;6.15;;;;;;;;;;5123579;27;20023;-72
2023/11/03 14:05:14;;;;;;;11.45;6.93;;;;;;;;;;5123364;27;20044;-72
2023/11/03 14:07:59;;;;;;;12.55;6.45;;;;;;;;;;5139073;27;20019;-72
2023/11/03 14:10:46;;;;;;;17.40;6.35;;;;;;;;;;5137281;27;20466;-71
2023/11/03 14:13:34;;;;;;;14.98;7.30;;;;;;;;;;5137342;27;20023;-72
2023/11/03 14:16:20;;;;;;;9.07;6.70;;;;;;;;;;5124103;27;20080;-71
2023/11/03 14:19:05;;;;;;;13.57;7.40;;;;;;;;;;5137931;27;20034;-73
2023/11/03 14:21:51;;;;;;;11.77;6.90;;;;;;;;;;5138784;27;20098;-71
2023/11/03 14:24:37;;;;;;;13.85;7.22;;;;;;;;;;5138625;27;20041;-72
2023/11/03 14:27:22;;;;;;;13.13;7.68;;;;;;;;;;5122947;27;20026;-72
2023/11/03 14:30:11;;;;;;;10.98;6.90;;;;;;;;;;5138459;27;20119;-72
2023/11/03 14:32:56;;;;;;;14.18;7.35;;;;;;;;;;5137348;27;20328;-72
2023/11/03 14:35:42;;;;;;;11.80;7.13;;;;;;;;;;5138099;27;20031;-73
2023/11/03 14:38:28;;;;;;;16.50;7.45;;;;;;;;;;5137343;27;20031;-72
2023/11/03 14:41:14;;;;;;;13.43;7.05;;;;;;;;;;5122730;27;20061;-71
2023/11/03 14:44:01;;;;;;;17.13;7.65;;;;;;;;;;5123224;27;20021;-72
2023/11/03 14:46:49;;;;;;;12.15;7.57;;;;;;;;;;5137205;27;20023;-73
2023/11/03 14:49:38;;;;;;;11.43;7.47;;;;;;;;;;5137690;27;20432;-72
2023/11/03 14:52:24;;;;;;;15.63;7.60;;;;;;;;;;5143190;27;20051;-72
2023/11/03 14:55:10;;;;;;;14.70;7.53;;;;;;;;;;5136640;27;20043;-71
2023/11/03 14:57:56;;;;;;;18.45;7.75;;;;;;;;;;5137984;27;20042;-72
2023/11/03 15:00:44;;;;;;;17.10;7.57;;;;;;;;;;5137446;27;20135;-73
2023/11/03 15:03:34;;;;;;;20.90;8.32;;;;;;;;;;5139081;27;20333;-73
2023/11/03 15:06:20;;;;;;;14.27;8.02;;;;;;;;;;5137248;27;20466;-73
2023/11/03 15:09:06;;;;;;;13.57;7.75;;;;;;;;;;5122176;27;20084;-72
2023/11/03 15:11:52;;;;;;;14.73;7.78;;;;;;;;;;5121918;27;20015;-72
2023/11/03 15:14:38;;;;;;;11.60;7.95;;;;;;;;;;5137240;27;20047;-72
2023/11/03 15:17:23;;;;;;;13.52;7.57;;;;;;;;;;5122222;27;20102;-71
2023/11/03 15:20:13;;;;;;;14.15;7.50;;;;;;;;;;5137742;27;20012;-71
2023/11/03 15:22:59;;;;;;;23.08;8.40;;;;;;;;;;5136255;27;20050;-71
2023/11/03 15:25:44;;;;;;;54.90;10.18;;;;;;;;;;5136894;27;20038;-73
2023/11/03 15:28:30;;;;;;;41.95;9.05;;;;;;;;;;5136266;27;20423;-72
2023/11/03 15:31:16;;;;;;;21.83;7.97;;;;;;;;;;5136876;27;20047;-71
2023/11/03 15:34:01;;;;;;;15.00;8.77;;;;;;;;;;5137127;27;20011;-71
2023/11/03 15:36:47;;;;;;;14.82;8.00;;;;;;;;;;5122496;27;20026;-72
2023/11/03 15:39:34;;;;;;;16.17;6.90;;;;;;;;;;5136266;27;20404;-72
2023/11/03 15:42:21;;;;;;;15.98;7.80;;;;;;;;;;5121130;27;20019;-71
2023/11/03 15:45:15;;;;;;;16.42;7.82;;;;;;;;;;5137151;27;20019;-72
2023/11/03 15:48:00;;;;;;;17.10;7.88;;;;;;;;;;5136584;27;20045;-73
2023/11/03 15:50:47;;;;;;;12.68;7.53;;;;;;;;;;5135713;27;20098;-71
2023/11/03 15:53:32;;;;;;;13.65;7.53;;;;;;;;;;5137073;27;20019;-71
2023/11/03 15:56:18;;;;;;;15.13;7.13;;;;;;;;;;5137011;27;20026;-72
2023/11/03 15:59:04;;;;;;;12.10;7.00;;;;;;;;;;5136064;27;20094;-71
2023/11/03 16:01:50;;;;;;;18.23;7.32;;;;;;;;;;5121732;27;20027;-72
2023/11/03 16:04:38;;;;;;;11.52;6.63;;;;;;;;;;5135866;27;20106;-72
2023/11/03 16:07:24;;;;;;;15.85;6.95;;;;;;;;;;5121449;27;20023;-72
2023/11/03 16:10:14;;;;;;;12.77;6.93;;;;;;;;;;5136127;27;20016;-72
2023/11/03 16:13:03;;;;;;;11.57;6.85;;;;;;;;;;5121284;27;20015;-72
2023/11/03 16:15:49;;;;;;;11.48;6.53;;;;;;;;;;5136184;27;20111;-73
2023/11/03 16:18:34;;;;;;;13.02;6.68;;;;;;;;;;5135597;27;20061;-71
2023/11/03 16:21:20;;;;;;;9.77;6.22;;;;;;;;;;5120210;27;20352;-73